sensor_id;sensor_type;location;lat;lon;timestamp;P1;durP1;ratioP1;P2;durP2;ratioP2
10293;SDS011;5192;50.328;7.610;2022-09-27T00:01:22;5.60;;;2.20;;
10293;SDS011;5192;50.328;7.610;2022-09-27T00:03:52;4.70;;;1.90;;
10293;SDS011;5192;50.328;7.610;2022-09-27T00:06:29;3.67;;;2.20;;
10293;SDS011;5192;50.328;7.610;2022-09-27T00:08:58;6.70;;;2.10;;
10293;SDS011;5192;50.328;7.610;2022-09-27T00:11:34;5.23;;;2.30;;
10293;SDS011;5192;50.328;7.610;2022-09-27T00:14:03;4.70;;;2.20;;
10293;SDS011;5192;50.328;7.610;2022-09-27T00:16:30;5.13;;;2.07;;
10293;SDS011;5192;50.328;7.610;2022-09-27T00:18:59;6.73;;;2.33;;
10293;SDS011;5192;50.328;7.610;2022-09-27T00:21:33;5.43;;;2.43;;
10293;SDS011;5192;50.328;7.610;2022-09-27T00:24:00;6.43;;;2.40;;
10293;SDS011;5192;50.328;7.610;2022-09-27T00:26:33;7.43;;;2.20;;
10293;SDS011;5192;50.328;7.610;2022-09-27T00:28:59;6.93;;;2.47;;
10293;SDS011;5192;50.328;7.610;2022-09-27T00:31:27;7.83;;;2.23;;
10293;SDS011;5192;50.328;7.610;2022-09-27T00:33:58;4.87;;;2.43;;
10293;SDS011;5192;50.328;7.610;2022-09-27T00:36:27;6.00;;;2.40;;
10293;SDS011;5192;50.328;7.610;2022-09-27T00:39:03;6.90;;;2.57;;
10293;SDS011;5192;50.328;7.610;2022-09-27T00:41:31;5.00;;;2.50;;
10293;SDS011;5192;50.328;7.610;2022-09-27T00:52:42;5.17;;;2.43;;
10293;SDS011;5192;50.328;7.610;2022-09-27T00:55:34;6.30;;;2.60;;
10293;SDS011;5192;50.328;7.610;2022-09-27T00:58:07;6.40;;;2.57;;
10293;SDS011;5192;50.328;7.610;2022-09-27T01:00:36;5.07;;;2.23;;
10293;SDS011;5192;50.328;7.610;2022-09-27T01:03:24;4.60;;;2.07;;
10293;SDS011;5192;50.328;7.610;2022-09-27T01:06:15;8.67;;;2.40;;
10293;SDS011;5192;50.328;7.610;2022-09-27T01:08:46;4.17;;;2.60;;
10293;SDS011;5192;50.328;7.610;2022-09-27T01:43:05;1.80;;;1.10;;
10293;SDS011;5192;50.328;7.610;2022-09-27T01:45:42;2.17;;;1.00;;
10293;SDS011;5192;50.328;7.610;2022-09-27T01:48:27;1.93;;;1.10;;
10293;SDS011;5192;50.328;7.610;2022-09-27T01:51:14;2.00;;;0.90;;
10293;SDS011;5192;50.328;7.610;2022-09-27T01:54:12;1.20;;;1.00;;
10293;SDS011;5192;50.328;7.610;2022-09-27T01:56:43;0.80;;;0.80;;
10293;SDS011;5192;50.328;7.610;2022-09-27T01:59:17;1.73;;;1.23;;
10293;SDS011;5192;50.328;7.610;2022-09-27T02:02:02;1.93;;;1.03;;
10293;SDS011;5192;50.328;7.610;2022-09-27T02:04:33;1.97;;;0.80;;
10293;SDS011;5192;50.328;7.610;2022-09-27T02:07:11;1.90;;;1.10;;
10293;SDS011;5192;50.328;7.610;2022-09-27T02:09:47;2.40;;;1.00;;
10293;SDS011;5192;50.328;7.610;2022-09-27T02:12:51;1.33;;;0.80;;
10293;SDS011;5192;50.328;7.610;2022-09-27T02:15:28;1.47;;;0.90;;
10293;SDS011;5192;50.328;7.610;2022-09-27T02:30:58;1.10;;;0.70;;
10293;SDS011;5192;50.328;7.610;2022-09-27T02:33:33;0.90;;;0.70;;
10293;SDS011;5192;50.328;7.610;2022-09-27T02:36:18;1.90;;;0.90;;
10293;SDS011;5192;50.328;7.610;2022-09-27T02:38:46;1.10;;;0.80;;
10293;SDS011;5192;50.328;7.610;2022-09-27T02:41:14;3.17;;;0.90;;
10293;SDS011;5192;50.328;7.610;2022-09-27T02:43:45;0.83;;;0.83;;
10293;SDS011;5192;50.328;7.610;2022-09-27T02:54:55;2.00;;;0.80;;
10293;SDS011;5192;50.328;7.610;2022-09-27T02:58:00;1.80;;;1.07;;
10293;SDS011;5192;50.328;7.610;2022-09-27T03:05:10;1.83;;;0.83;;
10293;SDS011;5192;50.328;7.610;2022-09-27T03:07:13;1.93;;;0.90;;
10293;SDS011;5192;50.328;7.610;2022-09-27T03:09:46;0.93;;;0.87;;
10293;SDS011;5192;50.328;7.610;2022-09-27T03:12:22;3.40;;;0.90;;
10293;SDS011;5192;50.328;7.610;2022-09-27T03:14:57;2.73;;;0.87;;
10293;SDS011;5192;50.328;7.610;2022-09-27T03:17:34;0.50;;;0.50;;
10293;SDS011;5192;50.328;7.610;2022-09-27T03:20:03;1.60;;;0.80;;
10293;SDS011;5192;50.328;7.610;2022-09-27T03:22:30;1.20;;;1.10;;
10293;SDS011;5192;50.328;7.610;2022-09-27T03:24:58;1.10;;;1.00;;
10293;SDS011;5192;50.328;7.610;2022-09-27T03:27:25;0.70;;;0.70;;
10293;SDS011;5192;50.328;7.610;2022-09-27T03:29:53;0.77;;;0.77;;
10293;SDS011;5192;50.328;7.610;2022-09-27T03:32:19;1.00;;;0.90;;
10293;SDS011;5192;50.328;7.610;2022-09-27T03:34:46;1.43;;;0.60;;
10293;SDS011;5192;50.328;7.610;2022-09-27T03:37:16;1.90;;;0.70;;
10293;SDS011;5192;50.328;7.610;2022-09-27T03:39:44;0.50;;;0.50;;
10293;SDS011;5192;50.328;7.610;2022-09-27T03:42:10;0.60;;;0.60;;
10293;SDS011;5192;50.328;7.610;2022-09-27T03:44:39;3.40;;;0.70;;
10293;SDS011;5192;50.328;7.610;2022-09-27T03:47:07;0.60;;;0.60;;
10293;SDS011;5192;50.328;7.610;2022-09-27T03:49:33;0.63;;;0.60;;
10293;SDS011;5192;50.328;7.610;2022-09-27T03:52:01;1.53;;;0.73;;
10293;SDS011;5192;50.328;7.610;2022-09-27T03:54:27;0.90;;;0.80;;
10293;SDS011;5192;50.328;7.610;2022-09-27T03:56:55;1.63;;;0.83;;
10293;SDS011;5192;50.328;7.610;2022-09-27T03:59:21;0.60;;;0.60;;
10293;SDS011;5192;50.328;7.610;2022-09-27T04:01:48;0.93;;;0.80;;
10293;SDS011;5192;50.328;7.610;2022-09-27T04:04:15;0.50;;;0.50;;
10293;SDS011;5192;50.328;7.610;2022-09-27T04:06:44;1.40;;;0.60;;
10293;SDS011;5192;50.328;7.610;2022-09-27T04:09:11;1.97;;;0.63;;
10293;SDS011;5192;50.328;7.610;2022-09-27T04:11:43;0.90;;;0.77;;
10293;SDS011;5192;50.328;7.610;2022-09-27T04:14:08;1.27;;;1.00;;
10293;SDS011;5192;50.328;7.610;2022-09-27T04:16:40;0.70;;;0.70;;
10293;SDS011;5192;50.328;7.610;2022-09-27T04:19:08;1.50;;;1.17;;
10293;SDS011;5192;50.328;7.610;2022-09-27T04:21:36;1.10;;;1.00;;
10293;SDS011;5192;50.328;7.610;2022-09-27T04:24:03;1.47;;;0.70;;
10293;SDS011;5192;50.328;7.610;2022-09-27T04:26:32;2.37;;;0.80;;
10293;SDS011;5192;50.328;7.610;2022-09-27T04:29:01;0.93;;;0.80;;
10293;SDS011;5192;50.328;7.610;2022-09-27T04:31:29;2.83;;;0.90;;
10293;SDS011;5192;50.328;7.610;2022-09-27T04:34:05;1.73;;;0.90;;
10293;SDS011;5192;50.328;7.610;2022-09-27T04:36:32;1.60;;;0.87;;
10293;SDS011;5192;50.328;7.610;2022-09-27T04:39:00;0.80;;;0.80;;
10293;SDS011;5192;50.328;7.610;2022-09-27T04:41:32;2.80;;;1.00;;
10293;SDS011;5192;50.328;7.610;2022-09-27T04:44:00;1.00;;;0.90;;
10293;SDS011;5192;50.328;7.610;2022-09-27T04:46:26;0.80;;;0.80;;
10293;SDS011;5192;50.328;7.610;2022-09-27T04:48:58;1.60;;;0.90;;
10293;SDS011;5192;50.328;7.610;2022-09-27T04:51:35;1.30;;;1.10;;
10293;SDS011;5192;50.328;7.610;2022-09-27T04:54:05;1.10;;;1.00;;
10293;SDS011;5192;50.328;7.610;2022-09-27T04:56:32;1.97;;;0.87;;
10293;SDS011;5192;50.328;7.610;2022-09-27T04:58:58;0.80;;;0.80;;
10293;SDS011;5192;50.328;7.610;2022-09-27T05:01:25;1.20;;;0.90;;
10293;SDS011;5192;50.328;7.610;2022-09-27T05:03:53;1.17;;;0.80;;
10293;SDS011;5192;50.328;7.610;2022-09-27T05:06:23;1.90;;;0.87;;
10293;SDS011;5192;50.328;7.610;2022-09-27T05:08:50;2.20;;;0.70;;
10293;SDS011;5192;50.328;7.610;2022-09-27T05:11:17;1.83;;;0.70;;
10293;SDS011;5192;50.328;7.610;2022-09-27T05:13:43;0.90;;;0.80;;
10293;SDS011;5192;50.328;7.610;2022-09-27T05:16:13;2.13;;;0.80;;
10293;SDS011;5192;50.328;7.610;2022-09-27T05:18:40;2.93;;;1.00;;
10293;SDS011;5192;50.328;7.610;2022-09-27T05:21:07;1.77;;;0.90;;
10293;SDS011;5192;50.328;7.610;2022-09-27T05:23:34;2.63;;;0.80;;
10293;SDS011;5192;50.328;7.610;2022-09-27T05:26:04;1.27;;;0.97;;
10293;SDS011;5192;50.328;7.610;2022-09-27T05:28:32;1.30;;;0.90;;
10293;SDS011;5192;50.328;7.610;2022-09-27T05:30:59;1.10;;;0.80;;
10293;SDS011;5192;50.328;7.610;2022-09-27T05:33:30;1.47;;;0.80;;
10293;SDS011;5192;50.328;7.610;2022-09-27T05:35:59;0.70;;;0.70;;
10293;SDS011;5192;50.328;7.610;2022-09-27T05:38:27;0.70;;;0.70;;
10293;SDS011;5192;50.328;7.610;2022-09-27T05:40:54;0.80;;;0.70;;
10293;SDS011;5192;50.328;7.610;2022-09-27T05:43:22;1.17;;;0.60;;
10293;SDS011;5192;50.328;7.610;2022-09-27T05:45:48;1.13;;;0.80;;
10293;SDS011;5192;50.328;7.610;2022-09-27T05:48:22;1.07;;;0.70;;
10293;SDS011;5192;50.328;7.610;2022-09-27T05:50:58;1.13;;;0.70;;
10293;SDS011;5192;50.328;7.610;2022-09-27T05:53:25;0.80;;;0.60;;
10293;SDS011;5192;50.328;7.610;2022-09-27T05:55:52;1.07;;;0.70;;
10293;SDS011;5192;50.328;7.610;2022-09-27T05:58:18;0.80;;;0.60;;
10293;SDS011;5192;50.328;7.610;2022-09-27T06:00:43;2.00;;;0.80;;
10293;SDS011;5192;50.328;7.610;2022-09-27T06:03:10;1.07;;;0.70;;
10293;SDS011;5192;50.328;7.610;2022-09-27T06:05:37;0.50;;;0.50;;
10293;SDS011;5192;50.328;7.610;2022-09-27T06:08:09;1.07;;;0.63;;
10293;SDS011;5192;50.328;7.610;2022-09-27T06:10:36;0.77;;;0.70;;
10293;SDS011;5192;50.328;7.610;2022-09-27T06:13:10;1.87;;;0.70;;
10293;SDS011;5192;50.328;7.610;2022-09-27T06:15:42;0.60;;;0.60;;
10293;SDS011;5192;50.328;7.610;2022-09-27T06:18:14;0.70;;;0.60;;
10293;SDS011;5192;50.328;7.610;2022-09-27T06:20:43;1.70;;;0.67;;
10293;SDS011;5192;50.328;7.610;2022-09-27T06:26:02;0.80;;;0.70;;
10293;SDS011;5192;50.328;7.610;2022-09-27T06:28:33;1.57;;;0.83;;
10293;SDS011;5192;50.328;7.610;2022-09-27T06:31:05;0.63;;;0.63;;
10293;SDS011;5192;50.328;7.610;2022-09-27T06:33:42;1.53;;;0.67;;
10293;SDS011;5192;50.328;7.610;2022-09-27T06:36:08;1.50;;;0.80;;
10293;SDS011;5192;50.328;7.610;2022-09-27T06:38:34;1.50;;;0.90;;
10293;SDS011;5192;50.328;7.610;2022-09-27T06:41:00;1.57;;;0.70;;
10293;SDS011;5192;50.328;7.610;2022-09-27T06:43:33;2.63;;;0.77;;
10293;SDS011;5192;50.328;7.610;2022-09-27T06:45:59;1.27;;;0.70;;
10293;SDS011;5192;50.328;7.610;2022-09-27T06:48:34;1.23;;;0.70;;
10293;SDS011;5192;50.328;7.610;2022-09-27T06:51:02;1.43;;;0.90;;
10293;SDS011;5192;50.328;7.610;2022-09-27T06:53:29;0.73;;;0.73;;
10293;SDS011;5192;50.328;7.610;2022-09-27T06:55:57;1.50;;;0.90;;
10293;SDS011;5192;50.328;7.610;2022-09-27T06:58:27;3.37;;;0.80;;
10293;SDS011;5192;50.328;7.610;2022-09-27T07:01:19;2.47;;;0.90;;
10293;SDS011;5192;50.328;7.610;2022-09-27T07:03:53;1.30;;;0.80;;
10293;SDS011;5192;50.328;7.610;2022-09-27T07:06:23;1.93;;;1.10;;
10293;SDS011;5192;50.328;7.610;2022-09-27T07:08:51;2.37;;;1.43;;
10293;SDS011;5192;50.328;7.610;2022-09-27T07:11:19;4.33;;;1.07;;
10293;SDS011;5192;50.328;7.610;2022-09-27T07:14:03;1.80;;;0.80;;
10293;SDS011;5192;50.328;7.610;2022-09-27T07:16:34;1.67;;;1.00;;
10293;SDS011;5192;50.328;7.610;2022-09-27T07:19:02;1.47;;;0.70;;
10293;SDS011;5192;50.328;7.610;2022-09-27T07:21:40;2.43;;;1.03;;
10293;SDS011;5192;50.328;7.610;2022-09-27T07:24:07;2.97;;;0.87;;
10293;SDS011;5192;50.328;7.610;2022-09-27T07:26:34;1.30;;;0.90;;
10293;SDS011;5192;50.328;7.610;2022-09-27T07:29:01;1.47;;;0.90;;
10293;SDS011;5192;50.328;7.610;2022-09-27T07:31:27;1.90;;;0.80;;
10293;SDS011;5192;50.328;7.610;2022-09-27T07:33:55;2.67;;;1.10;;
10293;SDS011;5192;50.328;7.610;2022-09-27T07:36:23;1.33;;;0.90;;
10293;SDS011;5192;50.328;7.610;2022-09-27T07:38:49;2.40;;;0.80;;
10293;SDS011;5192;50.328;7.610;2022-09-27T07:41:16;1.60;;;0.73;;
10293;SDS011;5192;50.328;7.610;2022-09-27T07:43:42;1.70;;;0.97;;
10293;SDS011;5192;50.328;7.610;2022-09-27T07:46:10;0.87;;;0.73;;
10293;SDS011;5192;50.328;7.610;2022-09-27T07:48:37;1.47;;;1.00;;
10293;SDS011;5192;50.328;7.610;2022-09-27T07:51:03;0.77;;;0.77;;
10293;SDS011;5192;50.328;7.610;2022-09-27T07:53:33;0.80;;;0.80;;
10293;SDS011;5192;50.328;7.610;2022-09-27T07:56:00;1.90;;;0.80;;
10293;SDS011;5192;50.328;7.610;2022-09-27T07:58:26;2.10;;;0.80;;
10293;SDS011;5192;50.328;7.610;2022-09-27T08:00:57;1.23;;;0.80;;
10293;SDS011;5192;50.328;7.610;2022-09-27T08:03:23;0.97;;;0.70;;
10293;SDS011;5192;50.328;7.610;2022-09-27T08:05:50;2.23;;;0.80;;
10293;SDS011;5192;50.328;7.610;2022-09-27T08:08:16;2.80;;;1.10;;
10293;SDS011;5192;50.328;7.610;2022-09-27T08:10:42;2.23;;;1.00;;
10293;SDS011;5192;50.328;7.610;2022-09-27T08:13:13;2.70;;;1.10;;
10293;SDS011;5192;50.328;7.610;2022-09-27T08:15:45;1.67;;;0.90;;
10293;SDS011;5192;50.328;7.610;2022-09-27T08:18:13;1.57;;;0.90;;
10293;SDS011;5192;50.328;7.610;2022-09-27T08:20:42;3.60;;;1.03;;
10293;SDS011;5192;50.328;7.610;2022-09-27T08:23:09;1.60;;;0.90;;
10293;SDS011;5192;50.328;7.610;2022-09-27T08:25:37;0.83;;;0.80;;
10293;SDS011;5192;50.328;7.610;2022-09-27T08:28:09;2.60;;;0.90;;
10293;SDS011;5192;50.328;7.610;2022-09-27T08:30:35;2.70;;;0.80;;
10293;SDS011;5192;50.328;7.610;2022-09-27T08:33:02;1.47;;;0.90;;
10293;SDS011;5192;50.328;7.610;2022-09-27T08:35:30;2.37;;;1.00;;
10293;SDS011;5192;50.328;7.610;2022-09-27T08:38:09;1.20;;;0.80;;
10293;SDS011;5192;50.328;7.610;2022-09-27T08:40:54;0.73;;;0.73;;
10293;SDS011;5192;50.328;7.610;2022-09-27T08:49:44;1.10;;;1.00;;
10293;SDS011;5192;50.328;7.610;2022-09-27T08:52:14;1.33;;;0.73;;
10293;SDS011;5192;50.328;7.610;2022-09-27T08:54:48;0.83;;;0.70;;
10293;SDS011;5192;50.328;7.610;2022-09-27T08:57:22;0.60;;;0.60;;
10293;SDS011;5192;50.328;7.610;2022-09-27T08:59:53;2.30;;;1.33;;
10293;SDS011;5192;50.328;7.610;2022-09-27T09:02:31;1.60;;;0.90;;
10293;SDS011;5192;50.328;7.610;2022-09-27T09:05:01;1.60;;;0.80;;
10293;SDS011;5192;50.328;7.610;2022-09-27T09:17:01;1.73;;;0.80;;
10293;SDS011;5192;50.328;7.610;2022-09-27T09:25:59;0.70;;;0.70;;
10293;SDS011;5192;50.328;7.610;2022-09-27T09:29:57;1.67;;;0.80;;
10293;SDS011;5192;50.328;7.610;2022-09-27T09:36:24;2.63;;;0.87;;
10293;SDS011;5192;50.328;7.610;2022-09-27T09:38:46;3.03;;;0.80;;
10293;SDS011;5192;50.328;7.610;2022-09-27T09:44:22;1.63;;;0.80;;
10293;SDS011;5192;50.328;7.610;2022-09-27T09:46:56;1.43;;;1.00;;
10293;SDS011;5192;50.328;7.610;2022-09-27T09:49:33;2.33;;;0.90;;
10293;SDS011;5192;50.328;7.610;2022-09-27T09:52:17;1.17;;;0.70;;
10293;SDS011;5192;50.328;7.610;2022-09-27T09:54:56;1.93;;;1.00;;
10293;SDS011;5192;50.328;7.610;2022-09-27T09:57:59;2.30;;;0.90;;
10293;SDS011;5192;50.328;7.610;2022-09-27T10:00:44;1.57;;;0.80;;
10293;SDS011;5192;50.328;7.610;2022-09-27T10:03:10;0.97;;;0.70;;
10293;SDS011;5192;50.328;7.610;2022-09-27T10:05:37;1.80;;;0.80;;
10293;SDS011;5192;50.328;7.610;2022-09-27T10:08:10;0.97;;;0.73;;
10293;SDS011;5192;50.328;7.610;2022-09-27T10:10:48;1.13;;;0.70;;
10293;SDS011;5192;50.328;7.610;2022-09-27T10:13:19;0.60;;;0.60;;
10293;SDS011;5192;50.328;7.610;2022-09-27T10:15:49;1.63;;;0.70;;
10293;SDS011;5192;50.328;7.610;2022-09-27T10:18:46;1.43;;;0.80;;
10293;SDS011;5192;50.328;7.610;2022-09-27T10:26:49;1.17;;;0.80;;
10293;SDS011;5192;50.328;7.610;2022-09-27T10:29:24;4.33;;;1.03;;
10293;SDS011;5192;50.328;7.610;2022-09-27T10:31:59;1.00;;;0.90;;
10293;SDS011;5192;50.328;7.610;2022-09-27T10:34:34;1.37;;;1.00;;
10293;SDS011;5192;50.328;7.610;2022-09-27T10:39:38;0.80;;;0.80;;
10293;SDS011;5192;50.328;7.610;2022-09-27T10:42:22;0.77;;;0.70;;
10293;SDS011;5192;50.328;7.610;2022-09-27T10:47:45;1.50;;;0.90;;
10293;SDS011;5192;50.328;7.610;2022-09-27T10:50:16;1.13;;;0.80;;
10293;SDS011;5192;50.328;7.610;2022-09-27T10:55:56;1.07;;;0.80;;
10293;SDS011;5192;50.328;7.610;2022-09-27T10:58:29;2.20;;;1.00;;
10293;SDS011;5192;50.328;7.610;2022-09-27T11:01:08;1.20;;;1.00;;
10293;SDS011;5192;50.328;7.610;2022-09-27T11:03:48;2.73;;;1.10;;
10293;SDS011;5192;50.328;7.610;2022-09-27T11:09:15;2.97;;;1.00;;
10293;SDS011;5192;50.328;7.610;2022-09-27T11:11:44;2.93;;;1.17;;
10293;SDS011;5192;50.328;7.610;2022-09-27T11:14:21;3.00;;;1.00;;
10293;SDS011;5192;50.328;7.610;2022-09-27T11:28:42;1.90;;;1.40;;
10293;SDS011;5192;50.328;7.610;2022-09-27T11:34:30;1.43;;;1.30;;
10293;SDS011;5192;50.328;7.610;2022-09-27T11:42:52;1.93;;;1.20;;
10293;SDS011;5192;50.328;7.610;2022-09-27T12:06:15;0.63;;;0.63;;
10293;SDS011;5192;50.328;7.610;2022-09-27T12:17:20;1.53;;;1.00;;
10293;SDS011;5192;50.328;7.610;2022-09-27T12:20:41;1.73;;;0.93;;
10293;SDS011;5192;50.328;7.610;2022-09-27T12:23:23;1.70;;;0.80;;
10293;SDS011;5192;50.328;7.610;2022-09-27T12:26:19;2.27;;;1.10;;
10293;SDS011;5192;50.328;7.610;2022-09-27T12:29:14;1.57;;;0.90;;
10293;SDS011;5192;50.328;7.610;2022-09-27T12:34:55;1.73;;;1.00;;
10293;SDS011;5192;50.328;7.610;2022-09-27T12:38:00;0.97;;;0.97;;
10293;SDS011;5192;50.328;7.610;2022-09-27T12:40:43;1.20;;;1.10;;
10293;SDS011;5192;50.328;7.610;2022-09-27T12:46:18;1.13;;;1.00;;
10293;SDS011;5192;50.328;7.610;2022-09-27T12:52:27;1.60;;;1.10;;
10293;SDS011;5192;50.328;7.610;2022-09-27T12:58:13;1.60;;;1.03;;
10293;SDS011;5192;50.328;7.610;2022-09-27T13:04:14;1.27;;;1.17;;
10293;SDS011;5192;50.328;7.610;2022-09-27T13:12:55;1.50;;;1.10;;
10293;SDS011;5192;50.328;7.610;2022-09-27T13:15:30;2.60;;;1.20;;
10293;SDS011;5192;50.328;7.610;2022-09-27T13:17:58;1.83;;;1.30;;
10293;SDS011;5192;50.328;7.610;2022-09-27T13:43:17;2.63;;;2.10;;
10293;SDS011;5192;50.328;7.610;2022-09-27T13:45:56;2.40;;;1.07;;
10293;SDS011;5192;50.328;7.610;2022-09-27T13:48:51;1.50;;;1.13;;
10293;SDS011;5192;50.328;7.610;2022-09-27T13:51:49;2.20;;;1.13;;
10293;SDS011;5192;50.328;7.610;2022-09-27T14:00:31;1.20;;;1.10;;
10293;SDS011;5192;50.328;7.610;2022-09-27T14:05:56;1.30;;;1.00;;
10293;SDS011;5192;50.328;7.610;2022-09-27T14:11:57;2.27;;;1.27;;
10293;SDS011;5192;50.328;7.610;2022-09-27T14:14:05;2.20;;;1.20;;
10293;SDS011;5192;50.328;7.610;2022-09-27T14:16:40;1.30;;;1.17;;
10293;SDS011;5192;50.328;7.610;2022-09-27T14:19:14;2.03;;;1.00;;
10293;SDS011;5192;50.328;7.610;2022-09-27T14:21:53;1.90;;;1.30;;
10293;SDS011;5192;50.328;7.610;2022-09-27T14:24:28;2.33;;;1.20;;
10293;SDS011;5192;50.328;7.610;2022-09-27T14:27:16;2.17;;;1.40;;
10293;SDS011;5192;50.328;7.610;2022-09-27T14:29:51;2.33;;;1.20;;
10293;SDS011;5192;50.328;7.610;2022-09-27T14:32:19;1.30;;;1.20;;
10293;SDS011;5192;50.328;7.610;2022-09-27T14:38:05;1.63;;;1.00;;
10293;SDS011;5192;50.328;7.610;2022-09-27T14:40:38;2.53;;;1.20;;
10293;SDS011;5192;50.328;7.610;2022-09-27T14:43:20;1.17;;;1.07;;
10293;SDS011;5192;50.328;7.610;2022-09-27T14:45:50;1.53;;;1.10;;
10293;SDS011;5192;50.328;7.610;2022-09-27T14:48:35;1.20;;;1.10;;
10293;SDS011;5192;50.328;7.610;2022-09-27T14:53:46;1.77;;;1.17;;
10293;SDS011;5192;50.328;7.610;2022-09-27T14:56:16;0.97;;;0.90;;
10293;SDS011;5192;50.328;7.610;2022-09-27T14:58:53;1.50;;;1.40;;
10293;SDS011;5192;50.328;7.610;2022-09-27T15:01:27;5.93;;;4.77;;
10293;SDS011;5192;50.328;7.610;2022-09-27T15:03:54;1.40;;;1.30;;
10293;SDS011;5192;50.328;7.610;2022-09-27T15:06:30;1.00;;;1.00;;
10293;SDS011;5192;50.328;7.610;2022-09-27T15:08:57;1.67;;;1.53;;
10293;SDS011;5192;50.328;7.610;2022-09-27T15:11:25;1.20;;;0.90;;
10293;SDS011;5192;50.328;7.610;2022-09-27T15:13:54;2.13;;;1.13;;
10293;SDS011;5192;50.328;7.610;2022-09-27T15:16:26;1.67;;;1.10;;
10293;SDS011;5192;50.328;7.610;2022-09-27T15:19:04;1.27;;;1.17;;
10293;SDS011;5192;50.328;7.610;2022-09-27T15:21:44;1.40;;;1.20;;
10293;SDS011;5192;50.328;7.610;2022-09-27T15:27:23;2.00;;;1.20;;
10293;SDS011;5192;50.328;7.610;2022-09-27T15:29:53;1.23;;;1.10;;
10293;SDS011;5192;50.328;7.610;2022-09-27T15:32:26;1.37;;;1.00;;
10293;SDS011;5192;50.328;7.610;2022-09-27T15:34:53;1.20;;;1.00;;
10293;SDS011;5192;50.328;7.610;2022-09-27T15:37:34;1.73;;;0.90;;
10293;SDS011;5192;50.328;7.610;2022-09-27T15:43:10;1.20;;;1.07;;
10293;SDS011;5192;50.328;7.610;2022-09-27T15:45:50;1.40;;;1.30;;
10293;SDS011;5192;50.328;7.610;2022-09-27T15:48:18;2.20;;;1.27;;
10293;SDS011;5192;50.328;7.610;2022-09-27T15:50:50;2.80;;;1.40;;
10293;SDS011;5192;50.328;7.610;2022-09-27T15:53:59;1.20;;;1.00;;
10293;SDS011;5192;50.328;7.610;2022-09-27T15:56:09;1.73;;;1.10;;
10293;SDS011;5192;50.328;7.610;2022-09-27T15:58:39;1.27;;;1.17;;
10293;SDS011;5192;50.328;7.610;2022-09-27T16:01:06;2.20;;;1.50;;
10293;SDS011;5192;50.328;7.610;2022-09-27T16:03:41;1.23;;;1.10;;
10293;SDS011;5192;50.328;7.610;2022-09-27T16:06:10;1.93;;;0.80;;
10293;SDS011;5192;50.328;7.610;2022-09-27T16:08:37;1.60;;;1.20;;
10293;SDS011;5192;50.328;7.610;2022-09-27T16:11:08;3.23;;;1.27;;
10293;SDS011;5192;50.328;7.610;2022-09-27T16:13:42;1.10;;;1.00;;
10293;SDS011;5192;50.328;7.610;2022-09-27T16:16:11;1.37;;;1.10;;
10293;SDS011;5192;50.328;7.610;2022-09-27T16:18:42;2.00;;;1.30;;
10293;SDS011;5192;50.328;7.610;2022-09-27T16:21:10;1.70;;;1.20;;
10293;SDS011;5192;50.328;7.610;2022-09-27T16:23:39;1.20;;;1.10;;
10293;SDS011;5192;50.328;7.610;2022-09-27T16:26:05;2.50;;;1.40;;
10293;SDS011;5192;50.328;7.610;2022-09-27T16:28:32;1.90;;;1.20;;
10293;SDS011;5192;50.328;7.610;2022-09-27T16:31:06;2.90;;;1.30;;
10293;SDS011;5192;50.328;7.610;2022-09-27T16:33:35;2.03;;;1.20;;
10293;SDS011;5192;50.328;7.610;2022-09-27T16:36:05;1.20;;;1.10;;
10293;SDS011;5192;50.328;7.610;2022-09-27T16:38:38;2.93;;;1.10;;
10293;SDS011;5192;50.328;7.610;2022-09-27T16:41:07;1.30;;;1.07;;
10293;SDS011;5192;50.328;7.610;2022-09-27T16:43:33;3.43;;;1.20;;
10293;SDS011;5192;50.328;7.610;2022-09-27T16:46:04;1.20;;;1.10;;
10293;SDS011;5192;50.328;7.610;2022-09-27T16:48:34;1.40;;;1.03;;
10293;SDS011;5192;50.328;7.610;2022-09-27T16:51:08;1.80;;;1.00;;
10293;SDS011;5192;50.328;7.610;2022-09-27T16:54:06;1.53;;;1.30;;
10293;SDS011;5192;50.328;7.610;2022-09-27T16:56:38;3.00;;;1.83;;
10293;SDS011;5192;50.328;7.610;2022-09-27T16:59:06;1.77;;;1.30;;
10293;SDS011;5192;50.328;7.610;2022-09-27T17:01:39;2.73;;;1.60;;
10293;SDS011;5192;50.328;7.610;2022-09-27T17:04:06;1.60;;;1.50;;
10293;SDS011;5192;50.328;7.610;2022-09-27T17:06:36;1.97;;;1.50;;
10293;SDS011;5192;50.328;7.610;2022-09-27T17:09:19;2.67;;;1.97;;
10293;SDS011;5192;50.328;7.610;2022-09-27T17:11:58;1.90;;;1.47;;
10293;SDS011;5192;50.328;7.610;2022-09-27T17:14:24;1.87;;;1.40;;
10293;SDS011;5192;50.328;7.610;2022-09-27T17:16:57;3.07;;;1.90;;
10293;SDS011;5192;50.328;7.610;2022-09-27T17:19:28;3.60;;;1.50;;
10293;SDS011;5192;50.328;7.610;2022-09-27T17:22:13;3.90;;;1.83;;
10293;SDS011;5192;50.328;7.610;2022-09-27T17:24:43;1.60;;;1.50;;
10293;SDS011;5192;50.328;7.610;2022-09-27T17:27:16;4.60;;;2.67;;
10293;SDS011;5192;50.328;7.610;2022-09-27T17:29:41;5.97;;;2.77;;
10293;SDS011;5192;50.328;7.610;2022-09-27T17:32:08;5.10;;;2.67;;
10293;SDS011;5192;50.328;7.610;2022-09-27T17:34:35;5.00;;;2.60;;
10293;SDS011;5192;50.328;7.610;2022-09-27T17:37:02;3.87;;;2.23;;
10293;SDS011;5192;50.328;7.610;2022-09-27T17:39:33;2.67;;;1.77;;
10293;SDS011;5192;50.328;7.610;2022-09-27T17:42:05;2.17;;;1.67;;
10293;SDS011;5192;50.328;7.610;2022-09-27T17:44:56;2.40;;;1.80;;
10293;SDS011;5192;50.328;7.610;2022-09-27T17:47:23;2.13;;;1.50;;
10293;SDS011;5192;50.328;7.610;2022-09-27T17:50:08;2.13;;;1.30;;
10293;SDS011;5192;50.328;7.610;2022-09-27T17:52:57;3.07;;;1.30;;
10293;SDS011;5192;50.328;7.610;2022-09-27T17:55:26;1.60;;;1.30;;
10293;SDS011;5192;50.328;7.610;2022-09-27T17:58:05;2.23;;;1.57;;
10293;SDS011;5192;50.328;7.610;2022-09-27T18:01:02;4.73;;;2.20;;
10293;SDS011;5192;50.328;7.610;2022-09-27T18:03:35;3.60;;;2.00;;
10293;SDS011;5192;50.328;7.610;2022-09-27T18:06:16;2.87;;;1.77;;
10293;SDS011;5192;50.328;7.610;2022-09-27T18:08:43;2.77;;;1.60;;
10293;SDS011;5192;50.328;7.610;2022-09-27T18:11:15;3.50;;;1.73;;
10293;SDS011;5192;50.328;7.610;2022-09-27T18:13:42;2.60;;;1.50;;
10293;SDS011;5192;50.328;7.610;2022-09-27T18:16:11;3.23;;;1.73;;
10293;SDS011;5192;50.328;7.610;2022-09-27T18:19:05;2.60;;;1.50;;
10293;SDS011;5192;50.328;7.610;2022-09-27T18:21:38;2.30;;;1.93;;
10293;SDS011;5192;50.328;7.610;2022-09-27T18:24:05;4.67;;;1.60;;
10293;SDS011;5192;50.328;7.610;2022-09-27T18:26:33;2.30;;;2.10;;
10293;SDS011;5192;50.328;7.610;2022-09-27T18:29:06;2.47;;;1.70;;
10293;SDS011;5192;50.328;7.610;2022-09-27T18:31:37;2.53;;;1.70;;
10293;SDS011;5192;50.328;7.610;2022-09-27T18:34:05;2.60;;;1.80;;
10293;SDS011;5192;50.328;7.610;2022-09-27T18:36:30;3.67;;;1.80;;
10293;SDS011;5192;50.328;7.610;2022-09-27T18:39:03;4.97;;;1.63;;
10293;SDS011;5192;50.328;7.610;2022-09-27T18:41:48;1.73;;;1.60;;
10293;SDS011;5192;50.328;7.610;2022-09-27T18:44:14;2.57;;;1.70;;
10293;SDS011;5192;50.328;7.610;2022-09-27T18:46:44;2.83;;;2.10;;
10293;SDS011;5192;50.328;7.610;2022-09-27T18:49:12;3.83;;;2.00;;
10293;SDS011;5192;50.328;7.610;2022-09-27T18:51:39;3.70;;;2.10;;
10293;SDS011;5192;50.328;7.610;2022-09-27T18:54:16;2.93;;;1.90;;
10293;SDS011;5192;50.328;7.610;2022-09-27T18:57:04;3.50;;;2.00;;
10293;SDS011;5192;50.328;7.610;2022-09-27T18:59:30;2.40;;;1.77;;
10293;SDS011;5192;50.328;7.610;2022-09-27T19:01:55;2.00;;;1.70;;
10293;SDS011;5192;50.328;7.610;2022-09-27T19:04:25;1.80;;;1.60;;
10293;SDS011;5192;50.328;7.610;2022-09-27T19:06:54;2.17;;;1.67;;
10293;SDS011;5192;50.328;7.610;2022-09-27T19:09:20;2.73;;;1.70;;
10293;SDS011;5192;50.328;7.610;2022-09-27T19:11:47;1.93;;;1.60;;
10293;SDS011;5192;50.328;7.610;2022-09-27T19:14:19;3.37;;;1.90;;
10293;SDS011;5192;50.328;7.610;2022-09-27T19:16:46;1.70;;;1.60;;
10293;SDS011;5192;50.328;7.610;2022-09-27T19:19:13;3.43;;;2.10;;
10293;SDS011;5192;50.328;7.610;2022-09-27T19:21:41;3.33;;;2.20;;
10293;SDS011;5192;50.328;7.610;2022-09-27T19:24:07;3.13;;;2.10;;
10293;SDS011;5192;50.328;7.610;2022-09-27T19:26:35;4.13;;;2.20;;
10293;SDS011;5192;50.328;7.610;2022-09-27T19:29:04;4.07;;;2.00;;